Terminal Aerodrome Forecast
Issued by NWS Charleston, WV

Current Version | Previous Version | Graphics & Text | Print | Product List | Glossary On
Versions: 1 2 3 4 5 6 7 8 9 10 11 12 13 14 15 16 17 18 19 20 21 22 23
000
FTUS41 KRLX 230920 AAA
TAFPKB
TAF AMD
KPKB 230920Z 2309/2406 VRB02KT 4SM BR SCT022 OVC035
     FM231100 VRB03KT 5SM SHRA BR OVC014
     FM231900 20006KT P6SM BKN020
     FM232300 18004KT P6SM BKN040=

USA.gov is the U.S. government's official web portal to all federal, state and local government web resources and services.